Flight Track Log - Related Links

Times and Time Zones

All times are in EDT time to prevent confusion due to time zone crossing. See the FLG4202 flight status page for this flight to view local times or setup timezone preferences in your user account.

Time Position Orientation Groundspeed Altitude Reporting Facility
EDT Latitude Longitude Course Direction KTS MPH feet Rate Location/Type
Wed 05:41:41 PM 42.2017 -83.3583 270° West 146 168 1,400  Level Cleveland Center
Wed 05:42:42 PM 42.1939 -83.4194 260° West 215 247 2,900 1,406 Climbing Cleveland Center
Wed 05:43:49 PM 42.1811 -83.5142 260° West 241 277 4,400 1,134 Climbing Cleveland Center
Wed 05:44:00 PM 41.9411 -83.5590 217° Southwest  Level FlightAware Approximate
Wed 05:44:49 PM 42.1683 -83.6061 259° West 280 322 5,300  Level Cleveland Center
Wed 05:45:00 PM 41.8587 -83.6396 210° Southwest  Level FlightAware Approximate
Wed 05:45:33 PM 42.1317 -83.6492 221° Southwest 294 338 7,000  Level Cleveland Center
Wed 05:46:00 PM 41.7705 -83.7082 210° Southwest  Level FlightAware Approximate
Wed 05:46:33 PM 42.0533 -83.6872 200° South 304 350 9,700  Level Cleveland Center
Wed 05:47:00 PM 41.6833 -83.7723 270° West  Level FlightAware Approximate
Wed 05:47:34 PM 41.9631 -83.7136 192° South 317 365 10,000  Level Cleveland Center
Wed 05:48:33 PM 41.8686 -83.7397 192° South 334 384 12,200 2,168 Climbing Cleveland Center
Wed 05:49:33 PM 41.7739 -83.7658 192° South 347 399 14,300 1,850 Climbing Cleveland Center
Wed 05:50:33 PM 41.6772 -83.7969 194° South 357 411 15,900 1,587 Climbing Cleveland Center
Wed 05:51:34 PM 41.5878 -83.8647 210° Southwest 357 411 17,500 1,450 Climbing Cleveland Center
Wed 05:52:33 PM 41.4981 -83.9406 212° Southwest 368 423 18,800 1,250 Climbing Cleveland Center
Wed 05:53:34 PM 41.4122 -84.0139 213° Southwest 381 438 20,000 600 Climbing Cleveland Center
Wed 05:54:33 PM 41.3117 -84.1025 214° Southwest 388 447 20,000  Level Cleveland Center
Wed 05:55:33 PM 41.2197 -84.1775 212° Southwest 388 447 20,000  Level Cleveland Center
Wed 05:56:34 PM 41.1425 -84.2450 213° Southwest 388 447 20,000  Level Cleveland Center
Wed 05:57:33 PM 41.0481 -84.3225 212° Southwest 388 447 20,000  Level Cleveland Center
Wed 05:59:57 PM 40.8142 -84.5200 213° Southwest 409 471 20,000  Level Indianapolis Center
Wed 06:00:59 PM 40.7158 -84.6017 212° Southwest 413 475 20,000  Level Indianapolis Center
Wed 06:02:01 PM 40.6169 -84.6828 212° Southwest 415 478 20,000  Level Indianapolis Center
Wed 06:03:03 PM 40.5242 -84.7606 213° Southwest 401 461 20,000 -145 Level Indianapolis Center
Wed 06:04:05 PM 40.4308 -84.8369 212° Southwest 394 453 19,700 -1,122 Descending Indianapolis Center
Wed 06:05:06 PM 40.3342 -84.9156 212° Southwest 385 443 17,700 -1,914 Descending Indianapolis Center
Wed 06:06:01 PM 40.2517 -84.9731 208° Southwest 367 422 16,000 -1,864 Descending Indianapolis Center
Wed 06:06:49 PM 40.1686 -84.9636 175° South 358 412 14,500 -1,652 Descending Indianapolis Center
Wed 06:07:10 PM 40.1481 -84.9578 168° South 357 411 14,100 -1,791 Descending Indianapolis Center
Wed 06:07:56 PM 40.0606 -84.9289 166° South 345 397 12,500 -1,742 Descending Indianapolis Center
Wed 06:08:12 PM 40.0542 -84.9286 178° South 349 402 12,300 -1,475 Descending Indianapolis Center
Wed 06:08:57 PM 39.9683 -84.9022 167° South 344 396 11,000 -1,258 Descending Indianapolis Center
Wed 06:09:14 PM 39.9425 -84.8942 167° South 344 396 11,000  Level Indianapolis Center
Wed 06:10:04 PM 39.8719 -84.8747 168° South 332 382 11,000 -339 Level Indianapolis Center
Wed 06:11:18 PM 39.7658 -84.8442 168° South 336 387 10,300 -485 Descending Indianapolis Center
Wed 06:12:20 PM 39.6742 -84.8072 163° South 348 400 9,900 -194 Descending Indianapolis Center
Wed 06:13:22 PM 39.5664 -84.7897 173° South 335 386 9,900  Level Indianapolis Center
Wed 06:14:24 PM 39.4692 -84.7661 169° South 344 396 9,900 43 Level Indianapolis Center
Wed 06:15:41 PM 39.3500 -84.7333 168° South 310 357 10,000 -438 Climbing Cincinnati TRACON
Wed 06:16:41 PM 39.2667 -84.7333 180° South 289 333 8,900 -1,500 Descending Cincinnati TRACON
Wed 06:17:41 PM 39.1833 -84.7500 189° South 290 334 7,000 -950 Descending Cincinnati TRACON
Wed 06:18:41 PM 39.1000 -84.7500 180° South 285 328 7,000  Level Cincinnati TRACON
Wed 06:19:48 PM 39.0167 -84.7667 189° South 264 304 7,000 -661 Level Cincinnati TRACON
Wed 06:20:48 PM 38.9500 -84.7667 180° South 243 280 5,600 -1,500 Descending Cincinnati TRACON
Wed 06:21:48 PM 38.8833 -84.7833 191° South 234 269 4,000 -857 Descending Cincinnati TRACON
Wed 06:22:40 PM 38.8569 -84.7425 130° Southeast 231 266 4,000  Level Indianapolis Center

Login

Don't have an account? Register now (free) for customized features, flight alerts, and more!